createdAt,value
2018-07-10T00:00:06.517Z,22.20
2018-07-10T00:00:38.262Z,22.20
2018-07-10T00:01:09.978Z,22.20
2018-07-10T00:01:41.719Z,22.30
2018-07-10T00:02:13.423Z,22.20
2018-07-10T00:02:45.151Z,22.20
2018-07-10T00:03:16.885Z,22.20
2018-07-10T00:03:48.585Z,22.20
2018-07-10T00:04:20.298Z,22.20
2018-07-10T00:04:52.038Z,22.20
2018-07-10T00:05:23.775Z,22.20
2018-07-10T00:05:55.493Z,22.20
2018-07-10T00:06:27.225Z,22.20
2018-07-10T00:06:58.934Z,22.20
2018-07-10T00:07:30.670Z,22.20
2018-07-10T00:08:02.495Z,22.20
2018-07-10T00:08:34.194Z,22.20
2018-07-10T00:09:05.900Z,22.20
2018-07-10T00:09:37.627Z,22.20
2018-07-10T00:10:09.350Z,22.20
2018-07-10T00:10:41.056Z,22.20
2018-07-10T00:11:12.792Z,22.20
2018-07-10T00:11:44.522Z,22.10
2018-07-10T00:12:16.264Z,22.10
2018-07-10T00:12:48.006Z,22.10
2018-07-10T00:13:19.713Z,22.10
2018-07-10T00:13:51.423Z,22.10
2018-07-10T00:14:23.158Z,22.10
2018-07-10T00:14:54.874Z,22.10
2018-07-10T00:15:26.586Z,22.10
2018-07-10T00:15:58.308Z,22.10
2018-07-10T00:16:30.008Z,22.10
2018-07-10T00:17:01.754Z,22.20
2018-07-10T00:17:33.479Z,22.20
2018-07-10T00:18:05.198Z,22.20
2018-07-10T00:18:36.918Z,22.20
2018-07-10T00:19:08.653Z,22.20
2018-07-10T00:19:40.369Z,22.20
2018-07-10T00:20:12.108Z,22.20
2018-07-10T00:20:43.822Z,22.20
2018-07-10T00:21:15.526Z,22.20
2018-07-10T00:21:47.239Z,22.20
2018-07-10T00:22:18.949Z,22.20
2018-07-10T00:22:50.665Z,22.20
2018-07-10T00:23:22.394Z,22.20
2018-07-10T00:23:54.125Z,22.30
2018-07-10T00:24:25.854Z,22.20
2018-07-10T00:24:57.578Z,22.20
2018-07-10T00:25:29.298Z,22.20
2018-07-10T00:26:01.086Z,22.20
2018-07-10T00:26:32.789Z,22.10
2018-07-10T00:27:04.530Z,22.20
2018-07-10T00:27:36.267Z,22.20
2018-07-10T00:28:07.981Z,22.20
2018-07-10T00:28:39.708Z,22.20
2018-07-10T00:29:11.429Z,22.20
2018-07-10T00:29:43.150Z,22.20
2018-07-10T00:30:14.862Z,22.20
2018-07-10T00:30:46.572Z,22.20
2018-07-10T00:31:18.291Z,22.20
2018-07-10T00:31:50.029Z,22.20
2018-07-10T00:32:21.761Z,22.20
2018-07-10T00:32:53.487Z,22.30
2018-07-10T00:33:25.223Z,22.30
2018-07-10T00:33:56.940Z,22.30
2018-07-10T00:34:28.664Z,22.30
2018-07-10T00:35:00.380Z,22.30
2018-07-10T00:35:32.118Z,22.30
2018-07-10T00:36:03.829Z,22.30
2018-07-10T00:36:35.539Z,22.30
2018-07-10T00:37:07.259Z,22.30
2018-07-10T00:37:38.975Z,22.30
2018-07-10T00:38:10.689Z,22.30
2018-07-10T00:38:42.446Z,22.30
2018-07-10T00:39:14.187Z,22.30
2018-07-10T00:39:45.946Z,22.30
2018-07-10T00:40:17.675Z,22.30
2018-07-10T00:40:49.390Z,22.30
2018-07-10T00:41:21.100Z,22.20
2018-07-10T00:41:52.843Z,22.20
2018-07-10T00:42:24.558Z,22.20
2018-07-10T00:42:56.280Z,22.20
2018-07-10T00:43:28.007Z,22.20
2018-07-10T00:43:59.729Z,22.20
2018-07-10T00:44:31.441Z,22.20
2018-07-10T00:45:03.173Z,22.20
2018-07-10T00:45:34.887Z,22.20
2018-07-10T00:46:06.619Z,22.20
2018-07-10T00:46:38.324Z,22.20
2018-07-10T00:47:10.041Z,22.20
2018-07-10T00:47:41.766Z,22.20
2018-07-10T00:48:13.498Z,22.20
2018-07-10T00:48:45.231Z,22.10
2018-07-10T00:49:17.019Z,22.10
2018-07-10T00:49:48.712Z,22.10
2018-07-10T00:50:20.429Z,22.10
2018-07-10T00:50:52.193Z,22.10
2018-07-10T00:51:23.893Z,22.20
2018-07-10T00:51:55.605Z,22.10
2018-07-10T00:52:27.320Z,22.10
2018-07-10T00:52:59.040Z,22.10
2018-07-10T00:53:30.754Z,22.10
2018-07-10T00:54:02.494Z,22.10
2018-07-10T00:54:34.213Z,22.10
2018-07-10T00:55:05.940Z,22.10
2018-07-10T00:55:37.651Z,22.10
2018-07-10T00:56:09.361Z,22.10
2018-07-10T00:56:41.070Z,22.10
2018-07-10T00:57:12.781Z,22.10
2018-07-10T00:57:44.532Z,22.10
2018-07-10T00:58:16.214Z,22.10
2018-07-10T00:58:47.959Z,22.10
2018-07-10T00:59:19.654Z,22.10
2018-07-10T00:59:51.370Z,22.10
2018-07-10T01:00:23.139Z,22.10
2018-07-10T01:00:54.852Z,22.10
2018-07-10T01:01:26.558Z,22.10
2018-07-10T01:01:58.261Z,22.10
2018-07-10T01:02:29.966Z,22.10
2018-07-10T01:03:01.687Z,22.10
2018-07-10T01:03:33.435Z,22.10
2018-07-10T01:04:05.138Z,22.10
2018-07-10T01:04:36.881Z,22.10
2018-07-10T01:05:08.582Z,22.10
2018-07-10T01:05:40.308Z,22.10
2018-07-10T01:06:12.077Z,22.00
2018-07-10T01:06:43.778Z,22.10
2018-07-10T01:07:15.499Z,22.10
2018-07-10T01:07:47.225Z,22.00
2018-07-10T01:08:18.942Z,22.00
2018-07-10T01:08:50.648Z,22.00
2018-07-10T01:09:22.380Z,22.10
2018-07-10T01:09:54.096Z,22.00
2018-07-10T01:10:25.817Z,22.10
2018-07-10T01:10:57.548Z,22.00
2018-07-10T01:11:29.259Z,22.10
2018-07-10T01:12:00.992Z,22.10
2018-07-10T01:12:32.724Z,22.00
2018-07-10T01:13:04.469Z,22.00
2018-07-10T01:13:36.193Z,22.00
2018-07-10T01:14:07.902Z,22.00
2018-07-10T01:14:39.619Z,22.00
2018-07-10T01:15:11.334Z,22.00
2018-07-10T01:15:43.044Z,22.00
2018-07-10T01:16:14.769Z,22.00
2018-07-10T01:16:46.472Z,22.00
2018-07-10T01:17:18.207Z,22.00
2018-07-10T01:17:49.930Z,22.00
2018-07-10T01:18:21.639Z,22.00
2018-07-10T01:18:53.446Z,22.00
2018-07-10T01:19:25.106Z,22.00
2018-07-10T01:19:56.851Z,22.00
2018-07-10T01:20:28.555Z,22.00
2018-07-10T01:21:00.266Z,22.00
2018-07-10T01:21:31.988Z,22.00
2018-07-10T01:22:03.740Z,22.00
2018-07-10T01:22:35.438Z,22.00
2018-07-10T01:23:07.173Z,22.00
2018-07-10T01:23:38.898Z,22.00
2018-07-10T01:24:10.617Z,22.00
2018-07-10T01:24:42.329Z,22.10
2018-07-10T01:25:14.050Z,22.10
2018-07-10T01:25:45.771Z,22.10
2018-07-10T01:26:17.484Z,22.10
2018-07-10T01:26:49.202Z,22.10
2018-07-10T01:27:20.923Z,22.10
2018-07-10T01:27:52.648Z,22.10
2018-07-10T01:28:24.354Z,22.10
2018-07-10T01:28:56.072Z,22.10
2018-07-10T01:29:27.824Z,22.10
2018-07-10T01:29:59.578Z,22.10
2018-07-10T01:30:31.354Z,22.10
2018-07-10T01:31:03.054Z,22.10
2018-07-10T01:31:34.771Z,22.10
2018-07-10T01:32:06.476Z,22.10
2018-07-10T01:32:38.199Z,22.10
2018-07-10T01:33:09.907Z,22.10
2018-07-10T01:33:41.668Z,22.10
2018-07-10T01:34:13.353Z,22.10
2018-07-10T01:34:45.070Z,22.10
2018-07-10T01:35:16.885Z,22.10
2018-07-10T01:35:48.545Z,22.10
2018-07-10T01:36:20.261Z,22.10
2018-07-10T01:36:51.996Z,22.10
2018-07-10T01:37:23.701Z,22.10
2018-07-10T01:37:55.422Z,22.10
2018-07-10T01:38:27.222Z,22.10
2018-07-10T01:38:58.934Z,22.00
2018-07-10T01:39:30.642Z,22.10
2018-07-10T01:40:02.415Z,22.10
2018-07-10T01:40:34.122Z,22.00
2018-07-10T01:41:05.822Z,22.00
2018-07-10T01:41:37.572Z,22.00
2018-07-10T01:42:09.269Z,22.00
2018-07-10T01:42:41.007Z,22.00
2018-07-10T01:43:12.715Z,22.00
2018-07-10T01:43:44.420Z,22.00
2018-07-10T01:44:16.141Z,22.00
2018-07-10T01:44:47.846Z,22.00
2018-07-10T01:45:19.576Z,22.00
2018-07-10T01:45:51.290Z,22.00
2018-07-10T01:46:23.055Z,22.00
2018-07-10T01:46:54.755Z,22.00
2018-07-10T01:47:26.470Z,22.00
2018-07-10T01:47:58.184Z,22.00
2018-07-10T01:48:29.933Z,22.00
2018-07-10T01:49:01.658Z,22.00
2018-07-10T01:49:33.378Z,22.00
2018-07-10T01:50:05.095Z,22.00
2018-07-10T01:50:36.813Z,22.00
2018-07-10T01:51:08.522Z,22.00
2018-07-10T01:51:40.237Z,22.00
2018-07-10T01:52:11.944Z,22.00
2018-07-10T01:52:43.707Z,22.00
2018-07-10T01:53:15.419Z,22.00
2018-07-10T01:53:47.150Z,22.00
2018-07-10T01:54:18.869Z,22.00
2018-07-10T01:54:50.588Z,22.00
2018-07-10T01:55:22.297Z,22.10
2018-07-10T01:55:54.021Z,22.10
2018-07-10T01:56:25.798Z,22.00
2018-07-10T01:56:57.481Z,22.10
2018-07-10T01:57:29.204Z,22.00
2018-07-10T01:58:00.916Z,22.10
2018-07-10T01:58:32.625Z,22.10
2018-07-10T01:59:04.349Z,22.10
2018-07-10T01:59:36.054Z,22.10
2018-07-10T02:00:07.770Z,22.10
2018-07-10T02:00:39.482Z,22.10
2018-07-10T02:01:11.204Z,22.10
2018-07-10T02:01:42.921Z,22.10
2018-07-10T02:02:14.646Z,22.10
2018-07-10T02:02:46.370Z,22.10
2018-07-10T02:03:18.090Z,22.10
2018-07-10T02:03:49.791Z,22.10
2018-07-10T02:04:21.530Z,22.10
2018-07-10T02:04:53.238Z,22.10
2018-07-10T02:05:24.959Z,22.10
2018-07-10T02:05:56.678Z,22.10
2018-07-10T02:06:28.384Z,22.10
2018-07-10T02:07:00.109Z,22.10
2018-07-10T02:07:31.832Z,22.10
2018-07-10T02:08:03.552Z,22.10
2018-07-10T02:08:35.271Z,22.10
2018-07-10T02:09:06.991Z,22.10
2018-07-10T02:09:38.754Z,22.10
2018-07-10T02:10:10.453Z,22.10
2018-07-10T02:10:42.184Z,22.10
2018-07-10T02:11:13.895Z,22.10
2018-07-10T02:11:45.620Z,22.10
2018-07-10T02:12:17.375Z,22.10
2018-07-10T02:12:49.109Z,22.10
2018-07-10T02:13:20.816Z,22.10
2018-07-10T02:13:52.546Z,22.10
2018-07-10T02:14:24.278Z,22.10
2018-07-10T02:14:56.013Z,22.10
2018-07-10T02:15:27.737Z,22.10
2018-07-10T02:15:59.468Z,22.10
2018-07-10T02:16:31.190Z,22.10
2018-07-10T02:17:02.906Z,22.10
2018-07-10T02:17:34.620Z,22.10
2018-07-10T02:18:06.343Z,22.10
2018-07-10T02:18:38.064Z,22.10
2018-07-10T02:19:09.797Z,22.10
2018-07-10T02:19:41.489Z,22.10
2018-07-10T02:20:13.214Z,22.10
2018-07-10T02:20:44.933Z,22.10
2018-07-10T02:21:16.673Z,22.10
2018-07-10T02:21:48.365Z,22.10
2018-07-10T02:22:20.087Z,22.10
2018-07-10T02:22:51.849Z,22.10
2018-07-10T02:23:23.566Z,22.10
2018-07-10T02:23:55.326Z,22.10
2018-07-10T02:24:27.011Z,22.10
2018-07-10T02:24:58.733Z,22.10
2018-07-10T02:25:30.441Z,22.10
2018-07-10T02:26:02.176Z,22.10
2018-07-10T02:26:33.882Z,22.10
2018-07-10T02:27:05.605Z,22.10
2018-07-10T02:27:37.324Z,22.10
2018-07-10T02:28:09.042Z,22.10
2018-07-10T02:28:40.776Z,22.10
2018-07-10T02:29:12.478Z,22.10
2018-07-10T02:29:44.213Z,22.20
2018-07-10T02:30:15.942Z,22.20
2018-07-10T02:30:47.666Z,22.20
2018-07-10T02:31:19.381Z,22.10
2018-07-10T02:31:51.085Z,22.10
2018-07-10T02:32:22.815Z,22.10
2018-07-10T02:32:54.572Z,22.10
2018-07-10T02:33:26.284Z,22.10
2018-07-10T02:33:58.036Z,22.10
2018-07-10T02:34:29.782Z,22.10
2018-07-10T02:35:01.475Z,22.10
2018-07-10T02:35:33.185Z,22.10
2018-07-10T02:36:04.902Z,22.10
2018-07-10T02:36:36.618Z,22.10
2018-07-10T02:37:08.342Z,22.20
2018-07-10T02:37:40.060Z,22.10
2018-07-10T02:38:11.773Z,22.10
2018-07-10T02:38:43.489Z,22.20
2018-07-10T02:39:15.192Z,22.10
2018-07-10T02:39:46.908Z,22.10
2018-07-10T02:40:18.623Z,22.10
2018-07-10T02:40:50.326Z,22.10
2018-07-10T02:41:22.105Z,22.10
2018-07-10T02:41:53.825Z,22.10
2018-07-10T02:42:25.552Z,22.10
2018-07-10T02:42:57.304Z,22.20
2018-07-10T02:43:29.011Z,22.10
2018-07-10T02:44:00.723Z,22.10
2018-07-10T02:44:32.450Z,22.10
2018-07-10T02:45:04.180Z,22.10
2018-07-10T02:45:35.887Z,22.10
2018-07-10T02:46:07.599Z,22.10
2018-07-10T02:46:39.314Z,22.10
2018-07-10T02:47:11.030Z,22.10
2018-07-10T02:47:42.760Z,22.10
2018-07-10T02:48:14.523Z,22.20
2018-07-10T02:48:46.256Z,22.20
2018-07-10T02:49:18.001Z,22.20
2018-07-10T02:49:49.695Z,22.20
2018-07-10T02:50:21.468Z,22.20
2018-07-10T02:50:53.179Z,22.20
2018-07-10T02:51:24.925Z,22.20
2018-07-10T02:51:56.644Z,22.20
2018-07-10T02:52:28.361Z,22.20
2018-07-10T02:53:00.088Z,22.20
2018-07-10T02:53:31.804Z,22.20
2018-07-10T02:54:03.552Z,22.20
2018-07-10T02:54:35.274Z,22.20
2018-07-10T02:55:06.990Z,22.20
2018-07-10T02:55:38.711Z,22.20
2018-07-10T02:56:10.426Z,22.20
2018-07-10T02:56:42.168Z,22.20
2018-07-10T02:57:13.892Z,22.20
2018-07-10T02:57:45.606Z,22.20
2018-07-10T02:58:17.309Z,22.20
2018-07-10T02:58:49.022Z,22.20
2018-07-10T02:59:20.766Z,22.20
2018-07-10T02:59:52.495Z,22.20
2018-07-10T03:00:24.224Z,22.20
2018-07-10T03:00:55.937Z,22.20
2018-07-10T03:01:27.657Z,22.20
2018-07-10T03:01:59.400Z,22.20
2018-07-10T03:02:31.119Z,22.20
2018-07-10T03:03:02.840Z,22.20
2018-07-10T03:03:34.563Z,22.20
2018-07-10T03:04:06.289Z,22.20
2018-07-10T03:04:38.010Z,22.20
2018-07-10T03:05:09.730Z,22.20
2018-07-10T03:05:41.436Z,22.20
2018-07-10T03:06:13.148Z,22.20
2018-07-10T03:06:44.855Z,22.20
2018-07-10T03:07:16.575Z,22.20
2018-07-10T03:07:48.371Z,22.20
2018-07-10T03:08:20.077Z,22.20
2018-07-10T03:08:51.821Z,22.20
2018-07-10T03:09:23.515Z,22.20
2018-07-10T03:09:55.225Z,22.20
2018-07-10T03:10:26.971Z,22.20
2018-07-10T03:10:58.706Z,22.20
2018-07-10T03:11:30.472Z,22.20
2018-07-10T03:12:02.217Z,22.20
2018-07-10T03:12:33.947Z,22.20
2018-07-10T03:13:05.677Z,22.20
2018-07-10T03:13:37.441Z,22.20
2018-07-10T03:14:09.167Z,22.20
2018-07-10T03:14:40.880Z,22.20
2018-07-10T03:15:12.590Z,22.20
2018-07-10T03:15:44.310Z,22.20
2018-07-10T03:16:16.043Z,22.20
2018-07-10T03:16:47.747Z,22.10
2018-07-10T03:17:19.468Z,22.10
2018-07-10T03:17:51.202Z,22.10
2018-07-10T03:18:22.942Z,22.10
2018-07-10T03:18:54.642Z,22.10
2018-07-10T03:19:26.386Z,22.10
2018-07-10T03:19:58.092Z,22.10
2018-07-10T03:20:29.803Z,22.10
2018-07-10T03:21:01.613Z,22.10
2018-07-10T03:21:33.330Z,22.10
2018-07-10T03:22:05.058Z,22.10
2018-07-10T03:22:36.784Z,22.10
2018-07-10T03:23:08.530Z,22.10
2018-07-10T03:23:40.261Z,22.10
2018-07-10T03:24:11.982Z,22.10
2018-07-10T03:24:43.690Z,22.10
2018-07-10T03:25:15.410Z,22.10
2018-07-10T03:25:47.134Z,22.10
2018-07-10T03:26:18.863Z,22.20
2018-07-10T03:26:50.619Z,22.20
2018-07-10T03:27:22.336Z,22.20
2018-07-10T03:27:54.063Z,22.10
2018-07-10T03:28:25.775Z,22.10
2018-07-10T03:28:57.514Z,22.10
2018-07-10T03:29:29.247Z,22.10
2018-07-10T03:30:00.955Z,22.20
2018-07-10T03:30:32.657Z,22.10
2018-07-10T03:31:04.383Z,22.10
2018-07-10T03:31:36.083Z,22.10
2018-07-10T03:32:07.793Z,22.10
2018-07-10T03:32:39.509Z,22.10
2018-07-10T03:33:11.234Z,22.10
2018-07-10T03:33:42.955Z,22.10
2018-07-10T03:34:14.676Z,22.20
2018-07-10T03:34:46.409Z,22.20
2018-07-10T03:35:18.124Z,22.20
2018-07-10T03:35:49.854Z,22.20
2018-07-10T03:36:21.570Z,22.20
2018-07-10T03:36:53.279Z,22.20
2018-07-10T03:37:25.087Z,22.20
2018-07-10T03:37:56.829Z,22.20
2018-07-10T03:38:28.523Z,22.20
2018-07-10T03:39:00.246Z,22.20
2018-07-10T03:39:31.961Z,22.20
2018-07-10T03:40:03.674Z,22.20
2018-07-10T03:40:35.400Z,22.20
2018-07-10T03:41:07.131Z,22.10
2018-07-10T03:41:38.844Z,22.20
2018-07-10T03:42:10.559Z,22.20
2018-07-10T03:42:42.282Z,22.20
2018-07-10T03:43:14.007Z,22.20
2018-07-10T03:43:45.751Z,22.20
2018-07-10T03:44:17.464Z,22.20
2018-07-10T03:44:49.296Z,22.20
2018-07-10T03:45:20.893Z,22.20
2018-07-10T03:45:52.628Z,22.20
2018-07-10T03:46:24.343Z,22.20
2018-07-10T03:46:56.052Z,22.20
2018-07-10T03:47:27.770Z,22.20
2018-07-10T03:47:59.493Z,22.20
2018-07-10T03:48:31.209Z,22.20
2018-07-10T03:49:02.920Z,22.20
2018-07-10T03:49:34.623Z,22.30
2018-07-10T03:50:06.346Z,22.30
2018-07-10T03:50:38.096Z,22.30
2018-07-10T03:51:09.797Z,22.30
2018-07-10T03:51:41.530Z,22.30
2018-07-10T03:52:13.257Z,22.20
2018-07-10T03:52:44.975Z,22.20
2018-07-10T03:53:16.712Z,22.20
2018-07-10T03:53:48.425Z,22.20
2018-07-10T03:54:20.138Z,22.30
2018-07-10T03:54:51.845Z,22.30
2018-07-10T03:55:23.570Z,22.30
2018-07-10T03:55:55.271Z,22.30
2018-07-10T03:56:27.016Z,22.30
2018-07-10T03:56:58.702Z,22.30
2018-07-10T03:57:30.421Z,22.30
2018-07-10T03:58:02.133Z,22.20
2018-07-10T03:58:33.848Z,22.30
2018-07-10T03:59:05.572Z,22.30
2018-07-10T03:59:37.292Z,22.30
2018-07-10T04:00:09.004Z,22.20
2018-07-10T04:00:40.711Z,22.20
2018-07-10T04:01:12.446Z,22.20
2018-07-10T04:01:44.187Z,22.20
2018-07-10T04:02:15.879Z,22.20
2018-07-10T04:02:47.598Z,22.20
2018-07-10T04:03:19.302Z,22.20
2018-07-10T04:03:51.019Z,22.20
2018-07-10T04:04:22.746Z,22.20
2018-07-10T04:04:54.468Z,22.20
2018-07-10T04:05:26.176Z,22.20
2018-07-10T04:05:57.892Z,22.20
2018-07-10T04:06:29.601Z,22.20
2018-07-10T04:07:01.326Z,22.20
2018-07-10T04:07:33.035Z,22.20
2018-07-10T04:08:04.755Z,22.20
2018-07-10T04:08:36.454Z,22.20
2018-07-10T04:09:08.206Z,22.20
2018-07-10T04:09:39.900Z,22.20
2018-07-10T04:10:11.614Z,22.20
2018-07-10T04:10:43.333Z,22.20
2018-07-10T04:11:15.038Z,22.30
2018-07-10T04:11:46.787Z,22.30
2018-07-10T04:12:18.517Z,22.30
2018-07-10T04:12:50.234Z,22.40
2018-07-10T04:13:21.954Z,22.40
2018-07-10T04:13:53.666Z,22.50
2018-07-10T04:14:25.370Z,22.50
2018-07-10T04:14:57.115Z,22.50
2018-07-10T04:15:28.839Z,22.50
2018-07-10T04:16:00.554Z,22.50
2018-07-10T04:16:32.284Z,22.50
2018-07-10T04:17:04.016Z,22.50
2018-07-10T04:17:35.722Z,22.50
2018-07-10T04:18:07.505Z,22.40
2018-07-10T04:18:39.226Z,22.50
2018-07-10T04:19:10.987Z,22.50
2018-07-10T04:19:42.691Z,22.50
2018-07-10T04:20:14.435Z,22.50
2018-07-10T04:20:46.151Z,22.50
2018-07-10T04:21:17.868Z,22.60
2018-07-10T04:21:49.607Z,22.50
2018-07-10T04:22:21.324Z,22.50
2018-07-10T04:22:53.026Z,22.50
2018-07-10T04:23:24.745Z,22.50
2018-07-10T04:23:56.457Z,22.50
2018-07-10T04:24:28.178Z,22.50
2018-07-10T04:24:59.918Z,22.50
2018-07-10T04:25:31.628Z,22.40
2018-07-10T04:26:03.361Z,22.40
2018-07-10T04:26:35.079Z,22.40
2018-07-10T04:27:06.875Z,22.40
2018-07-10T04:27:38.564Z,22.30
2018-07-10T04:28:10.286Z,22.30
2018-07-10T04:28:42.000Z,22.30
2018-07-10T04:29:13.716Z,22.40
2018-07-10T04:29:45.422Z,22.40
2018-07-10T04:30:17.166Z,22.30
2018-07-10T04:30:48.878Z,22.30
2018-07-10T04:31:20.579Z,22.40
2018-07-10T04:31:52.315Z,22.30
2018-07-10T04:32:24.032Z,22.30
2018-07-10T04:32:55.773Z,22.30
2018-07-10T04:33:27.503Z,22.30
2018-07-10T04:33:59.217Z,22.30
2018-07-10T04:34:30.933Z,22.30
2018-07-10T04:35:02.639Z,22.30
2018-07-10T04:35:34.360Z,22.30
2018-07-10T04:36:06.067Z,22.30
2018-07-10T04:36:37.775Z,22.40
2018-07-10T04:37:10.643Z,22.40
2018-07-10T04:37:42.669Z,22.40
2018-07-10T04:38:14.822Z,22.40
2018-07-10T04:38:46.641Z,22.40
2018-07-10T04:39:18.533Z,22.40
2018-07-10T04:39:50.247Z,22.40
2018-07-10T04:40:22.062Z,22.40
2018-07-10T04:40:54.512Z,22.40
2018-07-10T04:41:26.745Z,22.40
2018-07-10T04:41:58.631Z,22.40
2018-07-10T04:42:30.409Z,22.30
2018-07-10T04:43:02.285Z,22.30
2018-07-10T04:43:34.130Z,22.30
2018-07-10T04:44:05.988Z,22.30
2018-07-10T04:44:37.817Z,22.30
2018-07-10T04:45:09.533Z,22.40
2018-07-10T04:45:41.593Z,22.40
2018-07-10T04:46:13.668Z,22.50
2018-07-10T04:46:45.460Z,22.50
2018-07-10T04:47:17.313Z,22.50
2018-07-10T04:47:49.260Z,22.50
2018-07-10T04:48:20.950Z,22.40
2018-07-10T04:48:52.660Z,22.40
2018-07-10T04:49:24.456Z,22.40
2018-07-10T04:49:56.107Z,22.40
2018-07-10T04:50:27.820Z,22.40
2018-07-10T04:50:59.534Z,22.40
2018-07-10T04:51:31.263Z,22.50
2018-07-10T04:52:03.016Z,22.50
2018-07-10T04:52:34.719Z,22.50
2018-07-10T04:53:06.450Z,22.50
2018-07-10T04:53:38.190Z,22.50
2018-07-10T04:54:09.977Z,22.50
2018-07-10T04:54:42.105Z,22.50
2018-07-10T04:55:13.982Z,22.50
2018-07-10T04:55:46.747Z,22.50
2018-07-10T04:56:19.010Z,22.50
2018-07-10T04:56:50.812Z,22.50
2018-07-10T04:57:23.103Z,22.50
2018-07-10T04:57:55.390Z,22.50
2018-07-10T04:58:27.122Z,22.40
2018-07-10T04:58:58.845Z,22.40
2018-07-10T04:59:30.561Z,22.50
2018-07-10T05:00:02.296Z,22.50
2018-07-10T05:00:34.015Z,22.50
2018-07-10T05:01:05.735Z,22.50
2018-07-10T05:01:37.457Z,22.40
2018-07-10T05:02:09.175Z,22.40
2018-07-10T05:02:40.905Z,22.50
2018-07-10T05:03:12.614Z,22.50
2018-07-10T05:03:44.348Z,22.50
2018-07-10T05:04:16.065Z,22.50
2018-07-10T05:04:47.853Z,22.50
2018-07-10T05:05:19.675Z,22.50
2018-07-10T05:05:51.484Z,22.50
2018-07-10T05:06:23.183Z,22.40
2018-07-10T05:06:54.897Z,22.50
2018-07-10T05:07:26.690Z,22.50
2018-07-10T05:07:58.417Z,22.50
2018-07-10T05:08:30.131Z,22.50
2018-07-10T05:09:02.162Z,22.60
2018-07-10T05:09:33.883Z,22.60
2018-07-10T05:10:05.600Z,22.60
2018-07-10T05:10:37.787Z,22.60
2018-07-10T05:11:09.503Z,22.60
2018-07-10T05:11:41.246Z,22.50
2018-07-10T05:12:13.199Z,22.50
2018-07-10T05:12:44.885Z,22.50
2018-07-10T05:13:16.630Z,22.40
2018-07-10T05:13:48.489Z,22.40
2018-07-10T05:14:20.290Z,22.40
2018-07-10T05:14:51.980Z,22.30
2018-07-10T05:15:23.693Z,22.30
2018-07-10T05:15:55.563Z,22.30
2018-07-10T05:16:27.273Z,22.30
2018-07-10T05:17:38.100Z,22.30
2018-07-10T05:18:10.148Z,22.30
2018-07-10T05:18:41.912Z,22.30
2018-07-10T05:19:13.666Z,22.30
2018-07-10T05:19:45.399Z,22.40
2018-07-10T05:20:17.119Z,22.40
2018-07-10T05:20:48.824Z,22.40
2018-07-10T05:21:20.569Z,22.40
2018-07-10T05:21:52.281Z,22.50
2018-07-10T05:22:23.998Z,22.50
2018-07-10T05:22:55.743Z,22.50
2018-07-10T05:23:27.448Z,22.50
2018-07-10T05:23:59.168Z,22.50
2018-07-10T05:24:30.872Z,22.60
2018-07-10T05:25:02.578Z,22.60
2018-07-10T05:25:34.299Z,22.60
2018-07-10T05:26:06.066Z,22.60
2018-07-10T05:26:37.789Z,22.60
2018-07-10T05:27:09.507Z,22.60
2018-07-10T05:27:41.214Z,22.60
2018-07-10T05:28:12.928Z,22.60
2018-07-10T05:28:44.715Z,22.60
2018-07-10T05:29:16.419Z,22.60
2018-07-10T05:29:48.175Z,22.60
2018-07-10T05:30:19.896Z,22.60
2018-07-10T05:30:51.611Z,22.60
2018-07-10T05:31:23.330Z,22.50
2018-07-10T05:31:55.047Z,22.50
2018-07-10T05:32:26.767Z,22.50
2018-07-10T05:32:58.489Z,22.50
2018-07-10T05:33:30.192Z,22.50
2018-07-10T05:34:01.903Z,22.50
2018-07-10T05:34:33.621Z,22.50
2018-07-10T05:35:05.325Z,22.50
2018-07-10T05:35:37.037Z,22.50
2018-07-10T05:36:08.772Z,22.50
2018-07-10T05:36:40.575Z,22.50
2018-07-10T05:37:12.323Z,22.50
2018-07-10T05:37:43.982Z,22.40
2018-07-10T05:38:15.687Z,22.40
2018-07-10T05:38:47.402Z,22.40
2018-07-10T05:39:19.103Z,22.40
2018-07-10T05:39:50.812Z,22.50
2018-07-10T05:40:22.522Z,22.50
2018-07-10T05:40:54.247Z,22.50
2018-07-10T05:41:25.965Z,22.50
2018-07-10T05:41:57.713Z,22.60
2018-07-10T05:42:29.424Z,22.60
2018-07-10T05:43:01.142Z,22.60
2018-07-10T05:43:32.862Z,22.60
2018-07-10T05:44:04.575Z,22.60
2018-07-10T05:44:36.290Z,22.50
2018-07-10T05:45:07.992Z,22.60
2018-07-10T05:45:39.701Z,22.50
2018-07-10T05:46:11.438Z,22.50
2018-07-10T05:46:43.165Z,22.50
2018-07-10T05:47:14.878Z,22.50
2018-07-10T05:47:46.600Z,22.50
2018-07-10T05:48:18.311Z,22.60
2018-07-10T05:48:50.206Z,22.60
2018-07-10T05:49:21.906Z,22.60
2018-07-10T05:49:53.616Z,22.60
2018-07-10T05:50:25.319Z,22.60
2018-07-10T05:50:57.021Z,22.60
2018-07-10T05:51:28.740Z,22.60
2018-07-10T05:52:00.499Z,22.60
2018-07-10T05:52:32.177Z,22.60
2018-07-10T05:53:03.876Z,22.60
2018-07-10T05:53:35.615Z,22.60
2018-07-10T05:54:07.321Z,22.60
2018-07-10T05:54:39.026Z,22.60
2018-07-10T05:55:10.757Z,22.60
2018-07-10T05:55:42.477Z,22.60
2018-07-10T05:56:14.195Z,22.60
2018-07-10T05:56:45.909Z,22.60
2018-07-10T05:57:17.615Z,22.60
2018-07-10T05:57:49.335Z,22.60
2018-07-10T05:58:21.070Z,22.60
2018-07-10T05:58:52.756Z,22.60
2018-07-10T05:59:24.461Z,22.60
2018-07-10T05:59:56.186Z,22.60
2018-07-10T06:00:27.892Z,22.60
2018-07-10T06:00:59.613Z,22.70
2018-07-10T06:01:31.332Z,22.60
2018-07-10T06:02:03.034Z,22.70
2018-07-10T06:02:34.741Z,22.70
2018-07-10T06:03:06.460Z,22.60
2018-07-10T06:03:38.174Z,22.60
2018-07-10T06:04:09.873Z,22.60
2018-07-10T06:04:41.696Z,22.60
2018-07-10T06:05:13.295Z,22.60
2018-07-10T06:05:45.014Z,22.60
2018-07-10T06:06:16.763Z,22.60
2018-07-10T06:06:48.483Z,22.50
2018-07-10T06:07:20.182Z,22.60
2018-07-10T06:07:51.902Z,22.50
2018-07-10T06:08:23.621Z,22.50
2018-07-10T06:08:55.338Z,22.50
2018-07-10T06:09:27.089Z,22.50
2018-07-10T06:09:58.795Z,22.50
2018-07-10T06:10:30.517Z,22.50
2018-07-10T06:11:02.294Z,22.50
2018-07-10T06:11:34.034Z,22.50
2018-07-10T06:12:05.773Z,22.50
2018-07-10T06:12:37.542Z,22.50
2018-07-10T06:13:09.250Z,22.50
2018-07-10T06:13:40.959Z,22.50
2018-07-10T06:14:12.670Z,22.50
2018-07-10T06:14:44.397Z,22.50
2018-07-10T06:15:16.160Z,22.50
2018-07-10T06:15:47.822Z,22.40
2018-07-10T06:16:19.596Z,22.40
2018-07-10T06:16:51.269Z,22.40
2018-07-10T06:17:22.982Z,22.40
2018-07-10T06:17:54.681Z,22.40
2018-07-10T06:18:26.422Z,22.30
2018-07-10T06:18:58.147Z,22.30
2018-07-10T06:19:29.853Z,22.30
2018-07-10T06:20:01.576Z,22.30
2018-07-10T06:20:33.310Z,22.30
2018-07-10T06:21:05.038Z,22.30
2018-07-10T06:21:36.750Z,22.40
2018-07-10T06:22:08.483Z,22.40
2018-07-10T06:22:40.206Z,22.40
2018-07-10T06:23:11.925Z,22.40
2018-07-10T06:23:43.635Z,22.40
2018-07-10T06:24:15.348Z,22.40
2018-07-10T06:24:47.113Z,22.40
2018-07-10T06:25:18.854Z,22.40
2018-07-10T06:25:50.598Z,22.40
2018-07-10T06:26:22.314Z,22.40
2018-07-10T06:26:54.040Z,22.40
2018-07-10T06:27:25.775Z,22.40
2018-07-10T06:27:57.515Z,22.40
2018-07-10T06:28:29.217Z,22.40
2018-07-10T06:29:00.951Z,22.40
2018-07-10T06:29:32.665Z,22.40
2018-07-10T06:30:04.366Z,22.40
2018-07-10T06:30:36.077Z,22.40
2018-07-10T06:31:07.802Z,22.40
2018-07-10T06:31:39.500Z,22.40
2018-07-10T06:32:11.259Z,22.40
2018-07-10T06:32:42.993Z,22.40
2018-07-10T06:33:14.707Z,22.40
2018-07-10T06:33:46.431Z,22.30
2018-07-10T06:34:18.142Z,22.30
2018-07-10T06:34:49.869Z,22.30
2018-07-10T06:35:21.586Z,22.30
2018-07-10T06:35:53.298Z,22.30
2018-07-10T06:36:25.033Z,22.30
2018-07-10T06:36:56.754Z,22.30
2018-07-10T06:37:28.472Z,22.30
2018-07-10T06:38:00.158Z,22.30
2018-07-10T06:38:31.919Z,22.30
2018-07-10T06:39:03.603Z,22.30
2018-07-10T06:39:35.317Z,22.30
2018-07-10T06:40:07.029Z,22.20
2018-07-10T06:40:38.749Z,22.20
2018-07-10T06:41:10.462Z,22.20
2018-07-10T06:41:42.223Z,22.20
2018-07-10T06:42:13.931Z,22.20
2018-07-10T06:42:45.664Z,22.20
2018-07-10T06:43:17.397Z,22.20
2018-07-10T06:43:49.097Z,22.30
2018-07-10T06:44:20.802Z,22.30
2018-07-10T06:44:52.559Z,22.30
2018-07-10T06:45:24.266Z,22.40
2018-07-10T06:45:55.980Z,22.40
2018-07-10T06:46:27.685Z,22.40
2018-07-10T06:46:59.399Z,22.40
2018-07-10T06:47:31.123Z,22.50
2018-07-10T06:48:02.836Z,22.50
2018-07-10T06:48:34.596Z,22.50
2018-07-10T06:49:06.354Z,22.50